Time;durP1;ratioP1;P1;durP2;ratioP2;P2;SDS_P1;SDS_P2;PMS_P1;PMS_P2;Temp;Humidity;BMP_temperature;BMP_pressure;BME280_temperature;BME280_humidity;BME280_pressure;Samples;Min_cycle;Max_cycle;Signal;HPM_P1;HPM_P2
2022/01/27 00:00:38;;;;;;;32.88;10.80;;;;;;;-0.02;97.71;99964.13;5074707;28;20040;-68
2022/01/27 00:03:28;;;;;;;27.25;10.57;;;;;;;0.04;97.77;99958.31;5067088;28;20021;-68
2022/01/27 00:05:59;;;;;;;25.00;10.60;;;;;;;-0.14;98.00;99948.06;5074430;28;20197;-67
2022/01/27 00:08:31;;;;;;;25.85;10.07;;;;;;;-0.10;98.39;99949.97;5083553;28;20020;-67
2022/01/27 00:11:09;;;;;;;28.50;10.38;;;;;;;-0.08;97.95;99953.50;5066933;28;20090;-68
2022/01/27 00:13:43;;;;;;;27.88;10.80;;;;;;;-0.03;97.95;99946.81;5078272;28;20071;-67
2022/01/27 00:16:19;;;;;;;32.33;13.10;;;;;;;-0.13;97.96;99944.66;5086539;28;20108;-67
2022/01/27 00:18:47;;;;;;;27.98;9.90;;;;;;;-0.09;98.12;99943.94;5082179;28;20021;-68
2022/01/27 00:21:14;;;;;;;32.20;12.13;;;;;;;-0.22;98.42;99943.38;5067007;28;20208;-68
2022/01/27 00:23:41;;;;;;;30.75;10.32;;;;;;;-0.33;98.66;99945.50;5066904;28;20032;-67
2022/01/27 00:26:07;;;;;;;24.30;9.50;;;;;;;-0.27;98.49;99943.19;5071989;28;20051;-68
2022/01/27 00:28:33;;;;;;;27.98;10.82;;;;;;;-0.33;98.69;99939.41;5077779;28;20024;-67
2022/01/27 00:30:58;;;;;;;26.02;10.00;;;;;;;-0.29;98.89;99930.97;5083466;28;20024;-67
2022/01/27 00:33:24;;;;;;;24.50;9.82;;;;;;;-0.31;99.04;99933.50;5085784;28;20021;-68
2022/01/27 00:35:49;;;;;;;22.95;8.52;;;;;;;-0.26;98.73;99936.28;5077325;28;20316;-67
2022/01/27 00:38:15;;;;;;;28.67;11.73;;;;;;;-0.30;98.38;99935.28;5085962;28;20035;-67
2022/01/27 00:40:40;;;;;;;23.85;10.65;;;;;;;-0.27;98.67;99935.41;5070940;28;20375;-67
2022/01/27 00:43:06;;;;;;;23.23;10.35;;;;;;;-0.30;98.60;99935.28;5083610;28;20021;-67
2022/01/27 00:45:32;;;;;;;29.77;11.90;;;;;;;-0.27;98.68;99939.69;5066291;28;20076;-67
2022/01/27 00:48:02;;;;;;;24.15;9.18;;;;;;;-0.34;99.09;99938.53;5066441;28;20067;-67
2022/01/27 00:50:28;;;;;;;23.73;10.15;;;;;;;-0.34;98.93;99941.13;5067272;28;20328;-67
2022/01/27 00:52:56;;;;;;;29.75;12.63;;;;;;;-0.29;98.85;99925.78;5073224;28;20020;-67
2022/01/27 00:55:24;;;;;;;23.48;11.27;;;;;;;-0.30;99.06;99924.94;5066247;28;20016;-67
2022/01/27 00:58:05;;;;;;;26.13;9.68;;;;;;;-0.25;98.95;99923.41;5068681;28;20051;-67
2022/01/27 01:00:42;;;;;;;26.80;9.45;;;;;;;-0.21;98.72;99922.75;5085485;28;20246;-67
2022/01/27 01:03:23;;;;;;;22.25;9.23;;;;;;;-0.23;98.39;99921.78;5078780;28;20028;-67
2022/01/27 01:16:01;;;;;;;36.55;12.85;;;;;;;-0.29;99.16;99918.94;5067107;28;20025;-67
2022/01/27 01:34:22;;;;;;;25.25;8.73;;;;;;;-0.33;98.85;99924.81;5066811;28;20020;-68
2022/01/27 01:39:19;;;;;;;17.52;8.48;;;;;;;-0.27;99.41;99932.81;5084679;28;19904;-67
2022/01/27 01:41:44;;;;;;;22.00;9.48;;;;;;;-0.30;98.53;99935.28;5084616;28;20024;-67
2022/01/27 01:44:10;;;;;;;25.10;9.32;;;;;;;-0.29;98.45;99926.69;5075744;28;20051;-67
2022/01/27 01:46:36;;;;;;;23.20;8.98;;;;;;;-0.29;99.11;99930.97;5065111;28;20024;-67
2022/01/27 01:49:02;;;;;;;33.85;8.68;;;;;;;-0.28;98.90;99932.75;5065306;28;20209;-67
2022/01/27 01:51:29;;;;;;;26.67;10.52;;;;;;;-0.42;99.12;99928.66;5081351;28;20028;-67
2022/01/27 01:53:56;;;;;;;30.77;11.57;;;;;;;-0.34;99.20;99935.06;5084102;28;20130;-67
2022/01/27 01:56:21;;;;;;;31.05;10.23;;;;;;;-0.41;98.42;99936.50;5068764;28;20083;-67
2022/01/27 01:58:47;;;;;;;28.00;10.07;;;;;;;-0.42;98.58;99924.38;5075558;28;20332;-67
2022/01/27 02:01:13;;;;;;;27.75;10.07;;;;;;;-0.36;98.26;99924.66;5067283;28;20021;-67
2022/01/27 02:03:38;;;;;;;23.52;9.15;;;;;;;-0.35;98.70;99929.00;5084298;28;20215;-67
2022/01/27 02:06:04;;;;;;;27.48;10.35;;;;;;;-0.37;98.36;99922.91;5083634;28;20279;-67
2022/01/27 02:19:08;;;;;;;16.97;7.97;;;;;;;-0.48;97.91;99923.22;5073227;28;20016;-68
2022/01/27 02:21:44;;;;;;;21.70;9.20;;;;;;;-0.51;98.59;99917.91;5064727;28;20032;-68
2022/01/27 02:24:10;;;;;;;24.58;10.77;;;;;;;-0.54;98.38;99908.31;5064397;28;20021;-68
2022/01/27 02:26:36;;;;;;;29.88;10.90;;;;;;;-0.52;98.76;99906.72;5064352;28;20028;-68
2022/01/27 02:29:02;;;;;;;33.72;11.82;;;;;;;-0.50;98.88;99910.22;5073228;28;20240;-68
2022/01/27 02:31:27;;;;;;;21.83;8.70;;;;;;;-0.43;98.85;99912.28;5075975;28;20021;-68
2022/01/27 02:33:57;;;;;;;22.13;7.72;;;;;;;-0.48;98.76;99913.78;5064271;28;20032;-68
2022/01/27 02:36:22;;;;;;;28.33;10.93;;;;;;;-0.41;98.62;99913.22;5064396;28;20017;-68
2022/01/27 02:38:48;;;;;;;30.42;9.07;;;;;;;-0.42;98.98;99919.22;5081508;28;20031;-67
2022/01/27 02:41:16;;;;;;;35.55;11.05;;;;;;;-0.48;98.39;99918.94;5075203;28;20020;-67
2022/01/27 02:43:42;;;;;;;27.90;9.90;;;;;;;-0.48;98.55;99920.63;5083620;28;20046;-67
2022/01/27 02:46:17;;;;;;;31.15;12.35;;;;;;;-0.40;99.09;99927.03;5081957;28;20335;-67
2022/01/27 02:48:42;;;;;;;27.42;9.20;;;;;;;-0.41;98.78;99939.09;5083605;28;20224;-67
2022/01/27 02:51:08;;;;;;;34.53;11.85;;;;;;;-0.45;98.78;99934.59;5083161;28;20024;-67
2022/01/27 02:53:33;;;;;;;27.70;8.77;;;;;;;-0.34;99.30;99938.53;5064028;28;20316;-67
2022/01/27 02:55:58;;;;;;;23.77;9.88;;;;;;;-0.29;98.95;99926.69;5078364;28;20087;-67
2022/01/27 02:58:24;;;;;;;30.38;10.20;;;;;;;-0.30;99.10;99917.19;5083173;28;20020;-67
2022/01/27 03:00:50;;;;;;;30.33;11.50;;;;;;;-0.30;98.40;99904.25;5082064;28;20051;-67
2022/01/27 03:03:15;;;;;;;33.45;11.38;;;;;;;-0.37;98.64;99897.03;5075321;28;20070;-67
2022/01/27 03:05:41;;;;;;;33.33;12.95;;;;;;;-0.46;98.85;99886.28;5083167;28;20331;-68
2022/01/27 03:08:06;;;;;;;23.17;8.73;;;;;;;-0.46;99.30;99875.94;5083423;28;20024;-68
2022/01/27 03:10:39;;;;;;;31.10;9.55;;;;;;;-0.38;99.56;99890.06;5083040;28;20027;-68
2022/01/27 03:13:05;;;;;;;26.88;10.48;;;;;;;-0.39;99.35;99877.97;5081798;28;20079;-67
2022/01/27 03:15:30;;;;;;;25.30;11.00;;;;;;;-0.32;99.48;99884.28;5067477;28;20228;-67
2022/01/27 03:17:56;;;;;;;33.80;11.70;;;;;;;-0.34;99.36;99886.78;5074240;28;20379;-67
2022/01/27 03:20:22;;;;;;;19.48;8.82;;;;;;;-0.34;99.51;99875.59;5082987;28;20347;-67
2022/01/27 03:22:47;;;;;;;27.75;11.70;;;;;;;-0.34;99.40;99866.09;5083782;28;20066;-67
2022/01/27 03:25:13;;;;;;;38.83;12.88;;;;;;;-0.40;99.34;99871.03;5074715;28;20024;-68
2022/01/27 03:27:45;;;;;;;38.85;11.80;;;;;;;-0.32;99.65;99864.47;5083124;28;20112;-68
2022/01/27 03:30:11;;;;;;;32.13;10.40;;;;;;;-0.36;99.63;99875.53;5064846;28;20324;-68
2022/01/27 03:32:36;;;;;;;33.03;11.50;;;;;;;-0.34;99.97;99871.28;5063876;28;20027;-68
2022/01/27 03:35:02;;;;;;;32.80;10.77;;;;;;;-0.27;100.00;99869.84;5064380;28;20062;-68
2022/01/27 03:37:28;;;;;;;37.97;12.35;;;;;;;-0.28;99.62;99870.69;5070379;28;20031;-68
2022/01/27 03:39:53;;;;;;;29.15;10.15;;;;;;;-0.26;99.48;99869.91;5082743;28;20083;-68
2022/01/27 03:42:19;;;;;;;34.15;12.00;;;;;;;-0.30;99.91;99870.63;5083028;28;20031;-68
2022/01/27 03:44:44;;;;;;;30.48;10.35;;;;;;;-0.27;99.94;99875.91;5082902;28;20216;-68
2022/01/27 03:47:10;;;;;;;28.83;11.30;;;;;;;-0.26;99.51;99864.75;5071829;28;20017;-68
2022/01/27 03:49:35;;;;;;;29.80;10.85;;;;;;;-0.27;99.50;99862.97;5077520;28;20066;-68
2022/01/27 03:52:01;;;;;;;33.78;10.82;;;;;;;-0.35;99.91;99861.75;5081470;28;20089;-68
2022/01/27 03:54:28;;;;;;;31.73;11.75;;;;;;;-0.28;99.81;99866.38;5081793;28;20320;-68
2022/01/27 03:56:53;;;;;;;31.30;11.27;;;;;;;-0.35;100.00;99866.03;5082834;28;20070;-68
2022/01/27 03:59:19;;;;;;;40.42;12.93;;;;;;;-0.23;100.00;99867.47;5080893;28;20033;-68
2022/01/27 04:01:44;;;;;;;31.85;10.95;;;;;;;-0.25;99.83;99858.75;5063351;28;20078;-68
2022/01/27 04:04:10;;;;;;;33.38;13.63;;;;;;;-0.41;99.92;99853.72;5071051;28;20021;-68
2022/01/27 04:06:39;;;;;;;32.55;11.57;;;;;;;-0.34;100.00;99849.72;5082657;28;20386;-68
2022/01/27 04:09:08;;;;;;;24.02;10.52;;;;;;;-0.26;100.00;99849.22;5082743;28;20021;-68
2022/01/27 04:11:33;;;;;;;29.85;9.25;;;;;;;-0.29;100.00;99853.38;5073891;28;20048;-68
2022/01/27 04:13:59;;;;;;;27.33;10.75;;;;;;;-0.25;100.00;99848.38;5063176;28;20024;-68
2022/01/27 04:16:25;;;;;;;24.92;8.93;;;;;;;-0.20;99.92;99844.31;5073749;28;20075;-68
2022/01/27 04:18:50;;;;;;;36.72;12.52;;;;;;;-0.29;100.00;99849.09;5070726;28;20017;-68
2022/01/27 04:21:16;;;;;;;41.83;11.75;;;;;;;-0.34;100.00;99840.22;5076408;28;20024;-68
2022/01/27 04:23:42;;;;;;;32.83;10.48;;;;;;;-0.35;99.86;99837.59;5085574;28;20028;-68
2022/01/27 04:26:08;;;;;;;30.08;11.35;;;;;;;-0.32;100.00;99838.59;5086116;28;20227;-68
2022/01/27 04:28:36;;;;;;;36.67;9.38;;;;;;;-0.30;100.00;99836.97;5084586;28;20096;-68
2022/01/27 04:31:05;;;;;;;39.22;10.45;;;;;;;-0.31;100.00;99824.84;5086033;28;20031;-68
2022/01/27 04:33:33;;;;;;;30.33;10.10;;;;;;;-0.31;99.96;99827.44;5067950;28;20028;-68
2022/01/27 04:36:01;;;;;;;25.65;8.60;;;;;;;-0.41;100.00;99825.28;5082974;28;20038;-68
2022/01/27 04:38:44;;;;;;;32.10;9.75;;;;;;;-0.34;100.00;99824.72;5074720;28;20029;-68
2022/01/27 04:41:28;;;;;;;30.80;11.25;;;;;;;-0.32;100.00;99823.09;5066365;28;20028;-68
2022/01/27 04:44:03;;;;;;;36.03;12.45;;;;;;;-0.29;100.00;99832.66;5066364;28;20050;-68
2022/01/27 04:46:39;;;;;;;23.75;9.43;;;;;;;-0.25;100.00;99834.59;5075386;28;20023;-68
2022/01/27 04:49:07;;;;;;;31.17;9.93;;;;;;;-0.26;100.00;99833.69;5086017;28;20047;-68
2022/01/27 04:51:33;;;;;;;31.60;11.52;;;;;;;-0.26;99.88;99838.88;5084069;28;20340;-68
2022/01/27 04:54:52;;;;;;;30.63;8.73;;;;;;;-0.24;100.00;99837.25;5074666;28;20024;-68
2022/01/27 04:56:47;;;;;;;24.42;8.90;;;;;;;-0.19;100.00;99830.53;5061825;28;20041;-68
2022/01/27 04:59:26;;;;;;;23.25;8.32;;;;;;;-0.26;99.91;99832.81;5085516;28;20054;-68
2022/01/27 05:02:09;;;;;;;27.90;9.20;;;;;;;-0.14;99.96;99836.81;5083984;28;20028;-68
2022/01/27 05:04:35;;;;;;;30.63;12.50;;;;;;;-0.13;99.16;99833.38;5081115;28;20039;-68
2022/01/27 05:07:00;;;;;;;28.98;9.70;;;;;;;-0.09;99.01;99843.03;5083643;28;20242;-68
2022/01/27 05:09:26;;;;;;;31.40;10.85;;;;;;;-0.12;99.49;99847.22;5076174;28;20032;-68
2022/01/27 05:11:59;;;;;;;34.53;9.00;;;;;;;-0.09;99.38;99853.38;5077526;28;20081;-68
2022/01/27 05:14:26;;;;;;;32.80;10.48;;;;;;;-0.14;99.07;99844.56;5065101;28;20047;-68
2022/01/27 05:16:53;;;;;;;23.23;8.23;;;;;;;-0.12;99.60;99844.63;5064959;28;20208;-68
2022/01/27 05:19:19;;;;;;;27.08;9.18;;;;;;;-0.19;99.32;99835.72;5065150;28;20082;-68
2022/01/27 05:21:44;;;;;;;25.40;11.20;;;;;;;-0.13;99.73;99846.31;5064795;28;20280;-68
2022/01/27 05:24:11;;;;;;;33.38;11.10;;;;;;;-0.09;99.17;99837.00;5064507;28;20025;-68
2022/01/27 05:26:38;;;;;;;29.98;9.75;;;;;;;-0.18;99.03;99842.66;5063772;28;20358;-68
2022/01/27 05:29:04;;;;;;;34.60;10.73;;;;;;;-0.16;99.29;99846.19;5069451;28;20016;-68
2022/01/27 05:31:29;;;;;;;24.65;8.93;;;;;;;-0.09;99.06;99837.84;5075743;28;20066;-68
2022/01/27 05:33:55;;;;;;;28.55;9.98;;;;;;;-0.22;99.37;99840.75;5074184;28;20043;-68
2022/01/27 05:36:20;;;;;;;27.45;9.05;;;;;;;-0.11;99.25;99859.31;5078833;28;20087;-68
2022/01/27 05:38:46;;;;;;;28.30;8.90;;;;;;;-0.11;99.54;99859.31;5070112;28;20096;-68
2022/01/27 05:41:14;;;;;;;27.38;8.82;;;;;;;-0.14;99.42;99861.78;5065233;28;20027;-68
2022/01/27 05:43:40;;;;;;;31.35;11.23;;;;;;;-0.14;99.69;99865.25;5065165;28;20052;-68
2022/01/27 05:46:05;;;;;;;27.40;9.15;;;;;;;-0.14;99.54;99873.03;5065165;28;20251;-68
2022/01/27 05:48:30;;;;;;;35.22;10.13;;;;;;;-0.12;99.59;99866.19;5065102;28;20047;-68
2022/01/27 05:50:56;;;;;;;28.25;9.43;;;;;;;-0.13;99.02;99861.84;5065077;28;20021;-68
2022/01/27 05:53:23;;;;;;;27.58;9.18;;;;;;;-0.12;99.53;99863.59;5065044;28;20029;-68
2022/01/27 05:55:48;;;;;;;25.02;9.60;;;;;;;-0.18;99.17;99858.16;5064908;28;20024;-68
2022/01/27 05:58:14;;;;;;;25.98;11.18;;;;;;;-0.14;99.43;99857.50;5064936;28;20044;-68
2022/01/27 06:00:39;;;;;;;26.67;8.35;;;;;;;-0.13;99.77;99850.59;5064861;28;20028;-68
2022/01/27 06:03:05;;;;;;;33.95;9.98;;;;;;;-0.10;99.58;99853.31;5064810;28;20249;-68
2022/01/27 06:05:30;;;;;;;26.23;9.52;;;;;;;-0.11;99.35;99857.63;5064767;28;20020;-68
2022/01/27 06:07:56;;;;;;;28.55;9.57;;;;;;;-0.14;99.90;99870.44;5064720;28;20123;-68
2022/01/27 06:10:21;;;;;;;31.67;10.77;;;;;;;-0.18;99.14;99858.16;5064686;28;20028;-68
2022/01/27 06:12:52;;;;;;;28.17;8.77;;;;;;;-0.14;99.54;99854.91;5064376;28;20045;-68
2022/01/27 06:15:18;;;;;;;37.13;9.43;;;;;;;-0.05;99.30;99857.00;5064634;28;20028;-68
2022/01/27 06:17:44;;;;;;;32.15;9.98;;;;;;;-0.18;99.99;99837.47;5064410;28;20029;-68
2022/01/27 06:20:10;;;;;;;30.48;9.82;;;;;;;-0.19;99.71;99833.13;5064498;28;20035;-68
2022/01/27 06:22:35;;;;;;;26.55;8.60;;;;;;;-0.10;99.42;99835.22;5064514;28;20264;-68
2022/01/27 06:25:01;;;;;;;36.67;11.32;;;;;;;-0.38;99.82;99835.75;5064339;28;20025;-68
2022/01/27 06:27:26;;;;;;;19.77;9.43;;;;;;;-0.34;100.00;99832.47;5064384;28;20297;-68
2022/01/27 06:29:52;;;;;;;27.85;9.90;;;;;;;-0.31;100.00;99824.00;5064333;28;20028;-68
2022/01/27 06:32:17;;;;;;;28.30;11.73;;;;;;;-0.46;100.00;99826.81;5063156;28;20087;-68
2022/01/27 06:34:42;;;;;;;30.77;9.43;;;;;;;-0.52;100.00;99823.97;5063520;28;20032;-68
2022/01/27 06:37:08;;;;;;;33.13;9.52;;;;;;;-0.45;100.00;99820.81;5062918;28;20040;-68
2022/01/27 06:39:33;;;;;;;35.15;9.65;;;;;;;-0.48;100.00;99820.69;5064011;28;20028;-68
2022/01/27 06:42:01;;;;;;;29.13;10.15;;;;;;;-0.38;100.00;99817.66;5064160;28;20020;-68
2022/01/27 06:44:27;;;;;;;28.40;9.32;;;;;;;-0.33;100.00;99821.34;5064147;28;20320;-68
2022/01/27 06:46:52;;;;;;;23.13;8.65;;;;;;;-0.31;100.00;99824.84;5064123;28;20083;-68
2022/01/27 06:49:18;;;;;;;28.95;10.02;;;;;;;-0.24;100.00;99826.00;5064051;28;20088;-68
2022/01/27 06:51:44;;;;;;;28.77;9.45;;;;;;;-0.18;100.00;99821.94;5064012;28;20359;-68
2022/01/27 06:54:10;;;;;;;25.70;8.57;;;;;;;-0.21;100.00;99831.31;5063995;28;20046;-68
2022/01/27 06:56:36;;;;;;;29.42;8.63;;;;;;;-0.19;100.00;99830.53;5064136;28;20309;-68
2022/01/27 06:59:01;;;;;;;28.50;9.15;;;;;;;-0.25;100.00;99830.28;5062908;28;20021;-68
2022/01/27 07:01:27;;;;;;;35.30;11.23;;;;;;;-0.33;100.00;99838.53;5062938;28;20220;-68
2022/01/27 07:03:52;;;;;;;29.60;10.60;;;;;;;-0.32;100.00;99836.03;5062912;28;20093;-68
2022/01/27 07:06:18;;;;;;;24.73;9.77;;;;;;;-0.38;100.00;99827.13;5062945;28;20084;-68
2022/01/27 07:08:43;;;;;;;22.75;8.40;;;;;;;-0.30;100.00;99830.91;5062906;28;20052;-68
2022/01/27 07:11:09;;;;;;;26.15;9.10;;;;;;;-0.25;100.00;99838.03;5062863;28;20047;-68
2022/01/27 07:13:36;;;;;;;28.42;9.35;;;;;;;-0.26;100.00;99833.69;5062306;28;20037;-68
2022/01/27 07:16:02;;;;;;;23.73;8.68;;;;;;;-0.18;100.00;99832.28;5062683;28;20025;-68
2022/01/27 07:18:27;;;;;;;30.05;11.38;;;;;;;-0.21;100.00;99837.38;5062793;28;20032;-68
2022/01/27 07:20:53;;;;;;;30.02;10.60;;;;;;;-0.29;100.00;99832.66;5062772;28;20056;-68
2022/01/27 07:23:20;;;;;;;29.13;9.77;;;;;;;-0.30;100.00;99836.09;5062780;28;20024;-68
2022/01/27 07:25:45;;;;;;;21.63;9.55;;;;;;;-0.33;99.86;99831.69;5062486;28;20308;-68
2022/01/27 07:28:11;;;;;;;34.42;11.70;;;;;;;-0.36;99.97;99826.38;5062716;28;20149;-68
2022/01/27 07:30:36;;;;;;;23.63;8.48;;;;;;;-0.39;100.00;99825.34;5062685;28;20024;-68
2022/01/27 07:33:02;;;;;;;18.45;9.07;;;;;;;-0.59;100.00;99821.94;5062668;28;20025;-68
2022/01/27 07:35:27;;;;;;;28.95;10.05;;;;;;;-0.49;100.00;99813.75;5062549;28;20024;-68
2022/01/27 07:37:53;;;;;;;27.60;9.00;;;;;;;-0.54;100.00;99825.59;5062945;28;20017;-68
2022/01/27 07:40:19;;;;;;;28.85;9.18;;;;;;;-0.41;100.00;99824.41;5062448;28;20367;-68
2022/01/27 07:42:44;;;;;;;24.83;8.85;;;;;;;-0.30;100.00;99826.63;5062611;28;20055;-68
2022/01/27 07:45:10;;;;;;;23.77;8.25;;;;;;;-0.32;100.00;99827.38;5062556;28;20071;-68
2022/01/27 07:47:35;;;;;;;17.73;6.47;;;;;;;-0.25;100.00;99825.09;5062457;28;20204;-68
2022/01/27 07:50:01;;;;;;;32.20;10.10;;;;;;;-0.22;99.82;99820.06;5065825;28;20033;-68
2022/01/27 07:52:26;;;;;;;24.02;8.27;;;;;;;-0.23;99.55;99822.59;5067292;28;20346;-68
2022/01/27 07:54:52;;;;;;;29.10;10.05;;;;;;;-0.28;99.39;99818.94;5065808;28;20031;-66
2022/01/27 07:57:18;;;;;;;34.00;10.68;;;;;;;-0.38;99.59;99817.66;5066797;28;20017;-66
2022/01/27 07:59:43;;;;;;;24.88;8.93;;;;;;;-0.31;99.43;99824.00;5066311;28;20025;-66
2022/01/27 08:02:09;;;;;;;28.50;9.23;;;;;;;-0.38;99.55;99817.66;5067142;28;20025;-66
2022/01/27 08:04:34;;;;;;;22.83;7.00;;;;;;;-0.35;99.50;99822.97;5067102;28;20339;-66
2022/01/27 08:07:03;;;;;;;25.55;8.43;;;;;;;-0.36;100.00;99818.63;5067048;28;20025;-66
2022/01/27 08:09:29;;;;;;;18.30;6.78;;;;;;;-0.26;99.90;99807.84;5066997;28;20378;-66
2022/01/27 08:11:55;;;;;;;31.08;10.82;;;;;;;-0.32;99.73;99811.84;5066771;28;20071;-66
2022/01/27 08:14:20;;;;;;;25.73;8.27;;;;;;;-0.27;99.84;99811.25;5067050;28;20025;-66
2022/01/27 08:16:46;;;;;;;17.60;7.85;;;;;;;-0.23;99.73;99807.97;5066784;28;20024;-66
2022/01/27 08:19:11;;;;;;;17.50;6.82;;;;;;;-0.27;99.91;99820.69;5066819;28;20024;-66
2022/01/27 08:21:37;;;;;;;23.52;8.57;;;;;;;-0.32;99.84;99801.50;5066722;28;20021;-66
2022/01/27 08:24:03;;;;;;;23.13;8.38;;;;;;;-0.41;99.92;99807.19;5066650;28;20029;-66
2022/01/27 08:26:39;;;;;;;28.85;9.20;;;;;;;-0.47;100.00;99806.91;5066695;28;20258;-66
2022/01/27 08:29:16;;;;;;;26.10;9.40;;;;;;;-0.45;100.00;99815.63;5066694;28;20340;-66
2022/01/27 08:32:05;;;;;;;23.25;6.18;;;;;;;-0.44;100.00;99807.06;5066612;28;20193;-66
2022/01/27 08:34:35;;;;;;;20.75;7.30;;;;;;;-0.40;100.00;99811.56;5066281;28;20367;-66
2022/01/27 08:37:18;;;;;;;18.25;5.90;;;;;;;-0.30;99.92;99821.47;5066468;28;20051;-66
2022/01/27 08:39:46;;;;;;;22.27;8.00;;;;;;;-0.32;99.74;99812.75;5066456;28;20025;-66
2022/01/27 08:42:12;;;;;;;24.05;7.70;;;;;;;-0.33;99.86;99817.84;5066624;28;20020;-66
2022/01/27 08:44:38;;;;;;;15.02;6.07;;;;;;;-0.35;99.33;99817.78;5066334;28;20024;-66
2022/01/27 08:47:05;;;;;;;27.60;8.50;;;;;;;-0.49;99.86;99821.50;5066266;28;20250;-66
2022/01/27 08:49:31;;;;;;;20.83;7.68;;;;;;;-0.32;99.91;99817.91;5066197;28;20033;-66
2022/01/27 08:51:57;;;;;;;21.48;8.05;;;;;;;-0.31;99.39;99814.50;5066212;28;20232;-66
2022/01/27 08:54:25;;;;;;;17.75;6.43;;;;;;;-0.35;99.61;99801.38;5066188;28;20028;-66
2022/01/27 08:56:50;;;;;;;22.52;7.90;;;;;;;-0.42;99.56;99800.25;5066010;28;20025;-66
2022/01/27 08:59:16;;;;;;;22.23;9.07;;;;;;;-0.38;99.86;99807.31;5066033;28;20071;-66
2022/01/27 09:01:43;;;;;;;19.10;7.07;;;;;;;-0.33;99.50;99805.81;5065808;28;20031;-66
2022/01/27 09:04:08;;;;;;;16.38;7.10;;;;;;;-0.29;99.36;99797.34;5065961;28;20099;-66
2022/01/27 09:06:34;;;;;;;21.40;8.15;;;;;;;-0.47;99.77;99801.75;5065921;28;20320;-66
2022/01/27 09:09:01;;;;;;;13.40;6.07;;;;;;;-0.55;99.99;99802.25;5065875;28;20032;-66
2022/01/27 09:11:29;;;;;;;18.23;6.90;;;;;;;-0.42;100.00;99805.41;5065828;28;20088;-66
2022/01/27 09:13:55;;;;;;;15.45;7.68;;;;;;;-0.32;99.75;99792.06;5065643;28;20328;-66
2022/01/27 09:16:22;;;;;;;23.42;7.35;;;;;;;-0.45;99.97;99789.78;5065663;28;20017;-66
2022/01/27 09:18:48;;;;;;;28.50;7.88;;;;;;;-0.34;100.00;99795.41;5065957;28;20044;-66
2022/01/27 09:21:20;;;;;;;26.98;9.43;;;;;;;-0.46;100.00;99798.38;5065651;28;20021;-66
2022/01/27 09:23:47;;;;;;;21.33;7.80;;;;;;;-0.38;100.00;99791.78;5065860;28;20228;-66
2022/01/27 09:26:38;;;;;;;11.43;5.53;;;;;;;-0.31;100.00;99804.16;5065527;28;20025;-66
2022/01/27 09:28:58;;;;;;;21.23;6.53;;;;;;;-0.31;100.00;99809.31;5065437;28;20040;-66
2022/01/27 09:31:24;;;;;;;26.45;7.78;;;;;;;-0.20;100.00;99812.38;5065488;28;20088;-66
2022/01/27 09:33:49;;;;;;;18.17;7.72;;;;;;;-0.28;99.84;99809.47;5065472;28;20021;-66
2022/01/27 09:36:14;;;;;;;25.25;7.43;;;;;;;-0.19;99.47;99820.19;5065317;28;20216;-66
2022/01/27 09:38:40;;;;;;;16.73;7.05;;;;;;;-0.19;99.73;99820.19;5065326;28;20021;-66
2022/01/27 09:41:07;;;;;;;28.55;8.18;;;;;;;-0.13;99.92;99824.72;5065291;28;20070;-66
2022/01/27 09:43:34;;;;;;;20.38;5.63;;;;;;;0.00;99.89;99821.84;5065234;28;20017;-66
2022/01/27 09:46:04;;;;;;;18.92;6.32;;;;;;;-0.11;99.04;99818.81;5065219;28;20044;-66
2022/01/27 09:48:36;;;;;;;23.73;9.00;;;;;;;-0.06;99.72;99817.28;5065106;28;20257;-66
2022/01/27 09:51:23;;;;;;;16.85;6.57;;;;;;;0.00;99.08;99822.72;5065082;28;20063;-66
2022/01/27 09:53:48;;;;;;;12.63;5.75;;;;;;;-0.11;99.33;99810.16;5064955;28;20044;-66
2022/01/27 09:56:14;;;;;;;17.58;6.65;;;;;;;-0.04;98.98;99819.94;5064883;28;20025;-66
2022/01/27 09:58:40;;;;;;;14.27;5.93;;;;;;;-0.08;99.13;99812.88;5064888;28;20327;-66
2022/01/27 10:01:06;;;;;;;20.33;6.78;;;;;;;-0.01;99.13;99815.78;5064866;28;20212;-67
2022/01/27 10:03:31;;;;;;;19.00;7.57;;;;;;;-0.02;99.18;99814.03;5064814;28;20020;-67
2022/01/27 10:06:13;;;;;;;19.95;6.03;;;;;;;-0.02;99.38;99808.84;5065046;28;20012;-67
2022/01/27 10:08:42;;;;;;;20.35;5.78;;;;;;;0.05;98.99;99820.31;5065013;28;20059;-67
2022/01/27 10:11:16;;;;;;;19.10;9.00;;;;;;;-0.07;99.08;99815.53;5064961;28;20020;-67
2022/01/27 10:13:44;;;;;;;23.15;7.63;;;;;;;-0.04;99.37;99810.47;5063928;28;20325;-67
2022/01/27 10:16:30;;;;;;;20.48;6.93;;;;;;;0.11;99.41;99804.13;5064807;28;20212;-67
2022/01/27 10:19:13;;;;;;;22.38;7.07;;;;;;;0.08;99.05;99804.00;5064671;28;20021;-67
2022/01/27 10:21:39;;;;;;;18.20;7.47;;;;;;;0.13;98.61;99798.22;5064527;28;20336;-67
2022/01/27 10:24:18;;;;;;;17.83;6.40;;;;;;;0.15;98.51;99798.28;5064355;28;20051;-67
2022/01/27 10:26:51;;;;;;;20.48;6.95;;;;;;;0.30;98.44;99811.81;5064358;28;20024;-67
2022/01/27 10:29:29;;;;;;;21.52;6.15;;;;;;;0.27;98.67;99796.16;5064683;28;20102;-67
2022/01/27 10:32:06;;;;;;;15.95;6.90;;;;;;;0.29;98.84;99795.41;5064602;28;20354;-67
2022/01/27 10:34:58;;;;;;;25.48;6.68;;;;;;;0.30;98.74;99807.53;5064265;28;20021;-67
2022/01/27 10:37:24;;;;;;;;;;;;;;;0.38;98.92;99794.88;5064599;28;20024;-67
2022/01/27 10:39:49;;;;;;;14.98;6.18;;;;;;;0.46;98.41;99796.06;5064166;28;20197;-67
2022/01/27 10:42:21;;;;;;;16.52;7.38;;;;;;;0.58;98.58;99793.94;5064418;28;20020;-67
2022/01/27 10:44:54;;;;;;;20.73;7.10;;;;;;;0.55;98.67;99801.59;5064186;28;20074;-67
2022/01/27 10:47:25;;;;;;;19.60;7.93;;;;;;;0.65;98.64;99798.53;5064384;28;20044;-67
2022/01/27 10:49:57;;;;;;;14.02;6.10;;;;;;;0.73;98.34;99789.34;5064395;28;20017;-67
2022/01/27 10:54:59;;;;;;;21.67;8.18;;;;;;;0.91;97.34;99788.31;5064348;28;20021;-67
2022/01/27 10:57:25;;;;;;;23.92;8.60;;;;;;;0.88;96.74;99779.56;5064115;28;20017;-67
2022/01/27 11:00:05;;;;;;;38.20;8.85;;;;;;;0.98;97.00;99774.72;5063976;28;20113;-67
2022/01/27 11:02:31;;;;;;;33.33;11.00;;;;;;;0.98;96.98;99776.47;5063905;28;20025;-67
2022/01/27 11:04:56;;;;;;;21.70;8.27;;;;;;;0.97;97.03;99770.38;5063881;28;20025;-67
2022/01/27 11:07:24;;;;;;;24.67;8.95;;;;;;;0.99;96.79;99773.94;5063842;28;20021;-67
2022/01/27 11:09:50;;;;;;;20.27;8.18;;;;;;;0.98;96.49;99771.28;5063785;28;20025;-67
2022/01/27 11:12:18;;;;;;;20.13;8.05;;;;;;;1.05;96.74;99773.25;5063637;28;20060;-67
2022/01/27 11:14:47;;;;;;;21.80;8.98;;;;;;;0.92;96.56;99771.06;5063784;28;20044;-67
2022/01/27 11:17:19;;;;;;;29.30;9.95;;;;;;;0.93;96.76;99772.81;5063644;28;20021;-67
2022/01/27 11:27:37;;;;;;;27.60;9.38;;;;;;;1.05;96.70;99768.06;5067859;28;20013;-67
2022/01/27 11:30:30;;;;;;;24.40;9.93;;;;;;;0.97;96.75;99764.31;5068064;28;20021;-67
2022/01/27 11:33:03;;;;;;;21.08;8.57;;;;;;;0.95;97.00;99771.16;5067821;28;20028;-67
2022/01/27 11:35:29;;;;;;;23.02;9.23;;;;;;;0.98;97.17;99771.28;5067636;28;20035;-67
2022/01/27 11:37:58;;;;;;;34.13;10.02;;;;;;;0.96;96.73;99762.56;5067527;28;20032;-67
2022/01/27 11:40:53;;;;;;;22.17;9.95;;;;;;;1.00;97.27;99764.41;5067557;28;20028;-67
2022/01/27 11:43:25;;;;;;;21.80;8.52;;;;;;;1.04;97.38;99771.50;5058847;28;20043;-67
2022/01/27 11:45:52;;;;;;;18.95;7.15;;;;;;;1.02;97.08;99767.97;5067532;28;20025;-67
2022/01/27 11:48:26;;;;;;;24.73;9.27;;;;;;;1.09;97.17;99764.75;5067356;28;20035;-67
2022/01/27 11:51:13;;;;;;;21.27;8.07;;;;;;;1.18;96.45;99757.31;5067641;28;20087;-67
2022/01/27 11:53:50;;;;;;;20.25;8.85;;;;;;;1.26;96.56;99755.84;5067284;28;20173;-67
2022/01/27 11:56:28;;;;;;;20.10;8.32;;;;;;;1.36;96.18;99750.19;5067255;28;20099;-67
2022/01/27 11:58:58;;;;;;;30.83;9.75;;;;;;;1.36;96.18;99742.41;5067204;28;20094;-67
2022/01/27 12:01:25;;;;;;;25.33;9.45;;;;;;;1.36;96.20;99734.63;5067240;28;20024;-67
2022/01/27 12:04:02;;;;;;;24.38;9.40;;;;;;;1.39;96.05;99725.22;5067414;28;20312;-67
2022/01/27 12:06:32;;;;;;;25.15;8.70;;;;;;;1.30;96.51;99714.53;5067114;28;20044;-67
2022/01/27 12:09:22;;;;;;;25.52;8.88;;;;;;;1.25;96.54;99715.19;5067009;28;20031;-67
2022/01/27 12:12:26;;;;;;;26.27;8.68;;;;;;;1.36;96.35;99708.69;5067095;28;20029;-67
2022/01/27 12:15:00;;;;;;;19.23;8.68;;;;;;;1.39;96.59;99703.59;5066865;28;20024;-67
2022/01/27 12:17:27;;;;;;;25.27;9.70;;;;;;;1.34;96.18;99695.66;5067183;28;20032;-67